sensor_id;sensor_type;location;lat;lon;timestamp;temperature;humidity
12006;DHT22;6062;47.294;12.182;2022-12-29T00:00:08;2.40;46.90
12006;DHT22;6062;47.294;12.182;2022-12-29T00:02:35;2.50;46.90
12006;DHT22;6062;47.294;12.182;2022-12-29T00:05:01;2.50;46.70
12006;DHT22;6062;47.294;12.182;2022-12-29T00:07:27;2.60;46.80
12006;DHT22;6062;47.294;12.182;2022-12-29T00:09:52;2.70;46.80
12006;DHT22;6062;47.294;12.182;2022-12-29T00:12:18;2.70;46.80
12006;DHT22;6062;47.294;12.182;2022-12-29T00:14:44;2.70;46.80
12006;DHT22;6062;47.294;12.182;2022-12-29T00:17:28;2.80;46.80
12006;DHT22;6062;47.294;12.182;2022-12-29T00:19:53;2.80;46.90
12006;DHT22;6062;47.294;12.182;2022-12-29T00:22:37;2.90;47.00
12006;DHT22;6062;47.294;12.182;2022-12-29T00:25:21;2.90;46.80
12006;DHT22;6062;47.294;12.182;2022-12-29T00:28:08;2.80;46.70
12006;DHT22;6062;47.294;12.182;2022-12-29T00:30:52;2.80;46.70
12006;DHT22;6062;47.294;12.182;2022-12-29T00:33:41;2.80;46.70
12006;DHT22;6062;47.294;12.182;2022-12-29T00:36:30;2.80;46.60
12006;DHT22;6062;47.294;12.182;2022-12-29T00:39:12;2.80;46.50
12006;DHT22;6062;47.294;12.182;2022-12-29T00:42:04;2.80;46.60
12006;DHT22;6062;47.294;12.182;2022-12-29T00:45:04;2.70;46.50
12006;DHT22;6062;47.294;12.182;2022-12-29T00:47:30;2.70;46.60
12006;DHT22;6062;47.294;12.182;2022-12-29T00:49:55;2.70;46.80
12006;DHT22;6062;47.294;12.182;2022-12-29T00:52:21;2.60;46.80
12006;DHT22;6062;47.294;12.182;2022-12-29T00:54:47;2.60;46.90
12006;DHT22;6062;47.294;12.182;2022-12-29T00:57:13;2.60;47.00
12006;DHT22;6062;47.294;12.182;2022-12-29T00:59:40;2.60;47.00
12006;DHT22;6062;47.294;12.182;2022-12-29T01:02:08;2.60;47.00
12006;DHT22;6062;47.294;12.182;2022-12-29T01:04:35;2.60;46.90
12006;DHT22;6062;47.294;12.182;2022-12-29T01:07:00;2.50;46.60
12006;DHT22;6062;47.294;12.182;2022-12-29T01:09:26;2.50;46.40
12006;DHT22;6062;47.294;12.182;2022-12-29T01:12:11;2.50;46.10
12006;DHT22;6062;47.294;12.182;2022-12-29T01:14:37;2.50;45.80
12006;DHT22;6062;47.294;12.182;2022-12-29T01:17:04;2.40;45.70
12006;DHT22;6062;47.294;12.182;2022-12-29T01:19:30;2.40;45.60
12006;DHT22;6062;47.294;12.182;2022-12-29T01:21:56;2.30;45.40
12006;DHT22;6062;47.294;12.182;2022-12-29T01:24:22;2.30;45.40
12006;DHT22;6062;47.294;12.182;2022-12-29T01:26:48;2.30;46.10
12006;DHT22;6062;47.294;12.182;2022-12-29T01:29:14;2.20;45.30
12006;DHT22;6062;47.294;12.182;2022-12-29T01:31:40;2.10;45.30
12006;DHT22;6062;47.294;12.182;2022-12-29T01:34:06;2.10;45.30
12006;DHT22;6062;47.294;12.182;2022-12-29T01:36:32;2.00;45.30
12006;DHT22;6062;47.294;12.182;2022-12-29T01:38:58;2.00;45.40
12006;DHT22;6062;47.294;12.182;2022-12-29T01:41:25;1.90;45.40
12006;DHT22;6062;47.294;12.182;2022-12-29T01:43:53;1.80;45.40
12006;DHT22;6062;47.294;12.182;2022-12-29T01:46:40;1.80;45.60
12006;DHT22;6062;47.294;12.182;2022-12-29T01:49:15;1.70;45.30
12006;DHT22;6062;47.294;12.182;2022-12-29T01:51:50;1.60;45.40
12006;DHT22;6062;47.294;12.182;2022-12-29T01:54:43;1.60;45.30
12006;DHT22;6062;47.294;12.182;2022-12-29T01:57:17;1.60;45.50
12006;DHT22;6062;47.294;12.182;2022-12-29T02:00:08;1.50;45.40
12006;DHT22;6062;47.294;12.182;2022-12-29T02:02:36;1.50;45.40
12006;DHT22;6062;47.294;12.182;2022-12-29T02:05:09;1.40;45.40
12006;DHT22;6062;47.294;12.182;2022-12-29T02:07:46;1.40;45.30
12006;DHT22;6062;47.294;12.182;2022-12-29T02:10:14;1.40;45.30
12006;DHT22;6062;47.294;12.182;2022-12-29T02:12:40;1.30;45.30
12006;DHT22;6062;47.294;12.182;2022-12-29T02:15:06;1.30;45.40
12006;DHT22;6062;47.294;12.182;2022-12-29T02:18:08;1.30;45.40
12006;DHT22;6062;47.294;12.182;2022-12-29T02:21:24;1.20;45.50
12006;DHT22;6062;47.294;12.182;2022-12-29T02:24:02;1.20;45.70
12006;DHT22;6062;47.294;12.182;2022-12-29T02:26:47;1.20;45.80
12006;DHT22;6062;47.294;12.182;2022-12-29T02:37:59;1.10;46.00
12006;DHT22;6062;47.294;12.182;2022-12-29T02:49:52;1.20;46.50
12006;DHT22;6062;47.294;12.182;2022-12-29T02:52:31;1.20;46.40
12006;DHT22;6062;47.294;12.182;2022-12-29T02:55:04;1.20;46.40
12006;DHT22;6062;47.294;12.182;2022-12-29T02:57:34;1.20;46.20
12006;DHT22;6062;47.294;12.182;2022-12-29T03:00:05;1.20;45.90
12006;DHT22;6062;47.294;12.182;2022-12-29T03:03:04;1.20;45.70
12006;DHT22;6062;47.294;12.182;2022-12-29T03:13:58;1.20;45.90
12006;DHT22;6062;47.294;12.182;2022-12-29T03:17:01;1.20;45.90
12006;DHT22;6062;47.294;12.182;2022-12-29T03:19:37;1.10;45.70
12006;DHT22;6062;47.294;12.182;2022-12-29T03:22:17;1.20;45.60
12006;DHT22;6062;47.294;12.182;2022-12-29T03:24:55;1.10;45.40
12006;DHT22;6062;47.294;12.182;2022-12-29T03:27:35;1.10;45.50
12006;DHT22;6062;47.294;12.182;2022-12-29T03:30:06;1.10;45.40
12006;DHT22;6062;47.294;12.182;2022-12-29T03:32:36;1.10;45.40
12006;DHT22;6062;47.294;12.182;2022-12-29T03:35:08;1.10;45.40
12006;DHT22;6062;47.294;12.182;2022-12-29T03:37:41;1.00;45.40
12006;DHT22;6062;47.294;12.182;2022-12-29T03:40:11;1.00;45.50
12006;DHT22;6062;47.294;12.182;2022-12-29T03:42:38;0.90;45.60
12006;DHT22;6062;47.294;12.182;2022-12-29T03:45:07;0.90;45.80
12006;DHT22;6062;47.294;12.182;2022-12-29T03:47:33;0.90;45.90
12006;DHT22;6062;47.294;12.182;2022-12-29T03:49:59;0.90;45.80
12006;DHT22;6062;47.294;12.182;2022-12-29T03:52:24;0.90;45.90
12006;DHT22;6062;47.294;12.182;2022-12-29T03:54:50;0.90;46.00
12006;DHT22;6062;47.294;12.182;2022-12-29T03:57:16;0.90;46.00
12006;DHT22;6062;47.294;12.182;2022-12-29T03:59:41;0.90;46.20
12006;DHT22;6062;47.294;12.182;2022-12-29T04:02:07;0.90;45.90
12006;DHT22;6062;47.294;12.182;2022-12-29T04:04:33;0.90;45.90
12006;DHT22;6062;47.294;12.182;2022-12-29T04:06:58;1.00;45.90
12006;DHT22;6062;47.294;12.182;2022-12-29T04:09:24;1.00;46.50
12006;DHT22;6062;47.294;12.182;2022-12-29T04:11:50;1.00;45.80
12006;DHT22;6062;47.294;12.182;2022-12-29T04:14:15;1.00;45.80
12006;DHT22;6062;47.294;12.182;2022-12-29T04:16:41;1.00;45.60
12006;DHT22;6062;47.294;12.182;2022-12-29T04:19:07;1.00;45.40
12006;DHT22;6062;47.294;12.182;2022-12-29T04:21:33;1.00;45.30
12006;DHT22;6062;47.294;12.182;2022-12-29T04:23:59;1.10;45.30
12006;DHT22;6062;47.294;12.182;2022-12-29T04:26:25;1.00;45.30
12006;DHT22;6062;47.294;12.182;2022-12-29T04:28:51;1.00;45.50
12006;DHT22;6062;47.294;12.182;2022-12-29T04:31:17;1.00;45.40
12006;DHT22;6062;47.294;12.182;2022-12-29T04:33:42;1.00;45.30
12006;DHT22;6062;47.294;12.182;2022-12-29T04:36:08;1.00;45.30
12006;DHT22;6062;47.294;12.182;2022-12-29T04:38:34;1.00;45.20
12006;DHT22;6062;47.294;12.182;2022-12-29T04:41:00;1.00;45.20
12006;DHT22;6062;47.294;12.182;2022-12-29T04:43:28;1.00;45.10
12006;DHT22;6062;47.294;12.182;2022-12-29T04:45:54;1.00;45.10
12006;DHT22;6062;47.294;12.182;2022-12-29T04:48:20;1.10;45.00
12006;DHT22;6062;47.294;12.182;2022-12-29T04:50:48;1.10;44.90
12006;DHT22;6062;47.294;12.182;2022-12-29T04:53:15;1.10;44.90
12006;DHT22;6062;47.294;12.182;2022-12-29T04:55:42;1.10;44.80
12006;DHT22;6062;47.294;12.182;2022-12-29T04:58:07;1.10;44.80
12006;DHT22;6062;47.294;12.182;2022-12-29T05:00:33;1.10;44.80
12006;DHT22;6062;47.294;12.182;2022-12-29T05:02:59;1.00;44.80
12006;DHT22;6062;47.294;12.182;2022-12-29T05:05:25;1.00;44.90
12006;DHT22;6062;47.294;12.182;2022-12-29T05:07:51;1.00;45.00
12006;DHT22;6062;47.294;12.182;2022-12-29T05:10:17;1.00;45.00
12006;DHT22;6062;47.294;12.182;2022-12-29T05:12:43;1.10;45.20
12006;DHT22;6062;47.294;12.182;2022-12-29T05:15:09;1.10;46.00
12006;DHT22;6062;47.294;12.182;2022-12-29T05:17:36;1.10;45.30
12006;DHT22;6062;47.294;12.182;2022-12-29T05:20:03;1.10;45.30
12006;DHT22;6062;47.294;12.182;2022-12-29T05:22:30;1.10;45.20
12006;DHT22;6062;47.294;12.182;2022-12-29T05:24:56;1.20;45.00
12006;DHT22;6062;47.294;12.182;2022-12-29T05:27:21;1.20;45.00
12006;DHT22;6062;47.294;12.182;2022-12-29T05:29:47;1.20;45.70
12006;DHT22;6062;47.294;12.182;2022-12-29T05:32:13;1.20;45.20
12006;DHT22;6062;47.294;12.182;2022-12-29T05:34:38;1.30;45.20
12006;DHT22;6062;47.294;12.182;2022-12-29T05:37:04;1.30;45.30
12006;DHT22;6062;47.294;12.182;2022-12-29T05:39:30;1.30;45.30
12006;DHT22;6062;47.294;12.182;2022-12-29T05:41:56;1.40;45.30
12006;DHT22;6062;47.294;12.182;2022-12-29T05:44:21;1.40;45.30
12006;DHT22;6062;47.294;12.182;2022-12-29T05:46:47;1.40;45.20
12006;DHT22;6062;47.294;12.182;2022-12-29T05:49:13;1.40;45.20
12006;DHT22;6062;47.294;12.182;2022-12-29T05:51:39;1.50;45.30
12006;DHT22;6062;47.294;12.182;2022-12-29T05:54:04;1.50;45.20
12006;DHT22;6062;47.294;12.182;2022-12-29T05:56:30;1.50;45.10
12006;DHT22;6062;47.294;12.182;2022-12-29T05:58:56;1.60;45.10
12006;DHT22;6062;47.294;12.182;2022-12-29T06:01:22;1.60;45.00
12006;DHT22;6062;47.294;12.182;2022-12-29T06:03:47;1.60;45.10
12006;DHT22;6062;47.294;12.182;2022-12-29T06:06:13;1.70;45.20
12006;DHT22;6062;47.294;12.182;2022-12-29T06:08:39;1.70;45.20
12006;DHT22;6062;47.294;12.182;2022-12-29T06:11:05;1.80;45.40
12006;DHT22;6062;47.294;12.182;2022-12-29T06:13:30;1.80;45.20
12006;DHT22;6062;47.294;12.182;2022-12-29T06:15:57;1.80;45.00
12006;DHT22;6062;47.294;12.182;2022-12-29T06:18:22;1.90;45.00
12006;DHT22;6062;47.294;12.182;2022-12-29T06:20:48;2.00;45.00
12006;DHT22;6062;47.294;12.182;2022-12-29T06:23:15;2.00;45.00
12006;DHT22;6062;47.294;12.182;2022-12-29T06:25:41;2.10;45.20
12006;DHT22;6062;47.294;12.182;2022-12-29T06:28:07;2.10;45.10
12006;DHT22;6062;47.294;12.182;2022-12-29T06:30:33;2.20;45.00
12006;DHT22;6062;47.294;12.182;2022-12-29T06:32:59;2.20;44.70
12006;DHT22;6062;47.294;12.182;2022-12-29T06:35:25;2.30;44.50
12006;DHT22;6062;47.294;12.182;2022-12-29T06:37:51;2.30;44.30
12006;DHT22;6062;47.294;12.182;2022-12-29T06:40:16;2.30;43.90
12006;DHT22;6062;47.294;12.182;2022-12-29T06:42:42;2.40;43.60
12006;DHT22;6062;47.294;12.182;2022-12-29T06:45:08;2.40;43.60
12006;DHT22;6062;47.294;12.182;2022-12-29T06:47:35;2.40;43.80
12006;DHT22;6062;47.294;12.182;2022-12-29T06:50:02;2.40;43.40
12006;DHT22;6062;47.294;12.182;2022-12-29T06:52:28;2.40;43.20
12006;DHT22;6062;47.294;12.182;2022-12-29T06:54:54;2.40;43.00
12006;DHT22;6062;47.294;12.182;2022-12-29T06:57:21;2.40;42.90
12006;DHT22;6062;47.294;12.182;2022-12-29T06:59:47;2.40;42.90
12006;DHT22;6062;47.294;12.182;2022-12-29T07:02:13;2.40;42.90
12006;DHT22;6062;47.294;12.182;2022-12-29T07:04:40;2.40;42.80
12006;DHT22;6062;47.294;12.182;2022-12-29T07:07:05;2.40;42.90
12006;DHT22;6062;47.294;12.182;2022-12-29T07:09:31;2.40;42.90
12006;DHT22;6062;47.294;12.182;2022-12-29T07:11:57;2.40;42.90
12006;DHT22;6062;47.294;12.182;2022-12-29T07:14:23;2.30;42.90
12006;DHT22;6062;47.294;12.182;2022-12-29T07:16:48;2.30;43.20
12006;DHT22;6062;47.294;12.182;2022-12-29T07:19:14;2.30;43.40
12006;DHT22;6062;47.294;12.182;2022-12-29T07:21:40;2.30;43.50
12006;DHT22;6062;47.294;12.182;2022-12-29T07:24:06;2.30;43.60
12006;DHT22;6062;47.294;12.182;2022-12-29T07:26:33;2.40;43.70
12006;DHT22;6062;47.294;12.182;2022-12-29T07:29:00;2.50;43.90
12006;DHT22;6062;47.294;12.182;2022-12-29T07:31:26;2.50;43.80
12006;DHT22;6062;47.294;12.182;2022-12-29T07:33:52;2.60;44.10
12006;DHT22;6062;47.294;12.182;2022-12-29T07:36:17;2.70;43.90
12006;DHT22;6062;47.294;12.182;2022-12-29T07:38:43;2.80;43.80
12006;DHT22;6062;47.294;12.182;2022-12-29T07:41:09;2.90;43.70
12006;DHT22;6062;47.294;12.182;2022-12-29T07:43:35;2.90;43.40
12006;DHT22;6062;47.294;12.182;2022-12-29T07:46:00;3.00;43.20
12006;DHT22;6062;47.294;12.182;2022-12-29T07:48:26;3.10;43.20
12006;DHT22;6062;47.294;12.182;2022-12-29T07:50:52;3.20;43.40
12006;DHT22;6062;47.294;12.182;2022-12-29T07:53:19;3.30;43.60
12006;DHT22;6062;47.294;12.182;2022-12-29T07:55:44;3.30;43.60
12006;DHT22;6062;47.294;12.182;2022-12-29T07:58:10;3.40;43.70
12006;DHT22;6062;47.294;12.182;2022-12-29T08:00:37;3.50;44.00
12006;DHT22;6062;47.294;12.182;2022-12-29T08:03:03;3.60;44.10
12006;DHT22;6062;47.294;12.182;2022-12-29T08:05:31;3.70;43.90
12006;DHT22;6062;47.294;12.182;2022-12-29T08:07:58;3.80;43.70
12006;DHT22;6062;47.294;12.182;2022-12-29T08:10:24;3.90;44.20
12006;DHT22;6062;47.294;12.182;2022-12-29T08:12:50;4.10;45.00
12006;DHT22;6062;47.294;12.182;2022-12-29T08:15:15;4.50;46.00
12006;DHT22;6062;47.294;12.182;2022-12-29T08:17:41;4.90;47.40
12006;DHT22;6062;47.294;12.182;2022-12-29T08:20:07;5.50;48.00
12006;DHT22;6062;47.294;12.182;2022-12-29T08:22:34;6.30;48.10
12006;DHT22;6062;47.294;12.182;2022-12-29T08:24:59;7.20;47.90
12006;DHT22;6062;47.294;12.182;2022-12-29T08:27:25;8.20;47.10
12006;DHT22;6062;47.294;12.182;2022-12-29T08:29:51;9.30;45.90
12006;DHT22;6062;47.294;12.182;2022-12-29T08:32:17;10.40;43.00
12006;DHT22;6062;47.294;12.182;2022-12-29T08:34:43;11.30;40.60
12006;DHT22;6062;47.294;12.182;2022-12-29T08:37:09;12.10;37.40
12006;DHT22;6062;47.294;12.182;2022-12-29T08:39:35;12.60;35.90
12006;DHT22;6062;47.294;12.182;2022-12-29T08:42:00;12.90;34.00
12006;DHT22;6062;47.294;12.182;2022-12-29T08:44:26;13.00;33.10
12006;DHT22;6062;47.294;12.182;2022-12-29T08:46:52;12.80;32.30
12006;DHT22;6062;47.294;12.182;2022-12-29T08:49:18;12.60;31.70
12006;DHT22;6062;47.294;12.182;2022-12-29T08:51:43;12.30;31.00
12006;DHT22;6062;47.294;12.182;2022-12-29T08:54:09;11.90;31.40
12006;DHT22;6062;47.294;12.182;2022-12-29T08:56:35;11.60;32.30
12006;DHT22;6062;47.294;12.182;2022-12-29T08:59:00;11.50;33.90
12006;DHT22;6062;47.294;12.182;2022-12-29T09:01:26;11.50;35.10
12006;DHT22;6062;47.294;12.182;2022-12-29T09:03:53;11.80;35.30
12006;DHT22;6062;47.294;12.182;2022-12-29T09:06:20;12.10;34.60
12006;DHT22;6062;47.294;12.182;2022-12-29T09:08:46;12.60;34.90
12006;DHT22;6062;47.294;12.182;2022-12-29T09:11:18;13.10;33.90
12006;DHT22;6062;47.294;12.182;2022-12-29T09:13:45;13.50;32.70
12006;DHT22;6062;47.294;12.182;2022-12-29T09:16:12;13.90;32.20
12006;DHT22;6062;47.294;12.182;2022-12-29T09:18:38;14.40;32.30
12006;DHT22;6062;47.294;12.182;2022-12-29T09:21:06;14.80;32.80
12006;DHT22;6062;47.294;12.182;2022-12-29T09:23:33;15.30;31.10
12006;DHT22;6062;47.294;12.182;2022-12-29T09:26:00;15.80;31.20
12006;DHT22;6062;47.294;12.182;2022-12-29T09:28:26;16.40;31.40
12006;DHT22;6062;47.294;12.182;2022-12-29T09:30:54;17.10;31.60
12006;DHT22;6062;47.294;12.182;2022-12-29T09:33:20;17.80;31.00
12006;DHT22;6062;47.294;12.182;2022-12-29T09:35:52;18.60;30.00
12006;DHT22;6062;47.294;12.182;2022-12-29T09:38:19;19.40;29.00
12006;DHT22;6062;47.294;12.182;2022-12-29T09:40:51;20.10;28.60
12006;DHT22;6062;47.294;12.182;2022-12-29T09:46:40;21.70;26.80
12006;DHT22;6062;47.294;12.182;2022-12-29T09:51:55;23.10;24.90
12006;DHT22;6062;47.294;12.182;2022-12-29T09:58:10;24.10;21.70
12006;DHT22;6062;47.294;12.182;2022-12-29T10:00:18;24.40;21.40
12006;DHT22;6062;47.294;12.182;2022-12-29T10:03:17;24.60;21.40
12006;DHT22;6062;47.294;12.182;2022-12-29T10:05:58;24.80;21.10
12006;DHT22;6062;47.294;12.182;2022-12-29T10:09:20;25.00;20.30
12006;DHT22;6062;47.294;12.182;2022-12-29T10:18:06;24.00;19.20
12006;DHT22;6062;47.294;12.182;2022-12-29T10:20:48;23.40;19.50
12006;DHT22;6062;47.294;12.182;2022-12-29T10:25:57;21.80;19.90
12006;DHT22;6062;47.294;12.182;2022-12-29T10:28:38;21.10;20.50
12006;DHT22;6062;47.294;12.182;2022-12-29T10:31:22;20.20;20.80
12006;DHT22;6062;47.294;12.182;2022-12-29T10:33:57;19.40;21.20
12006;DHT22;6062;47.294;12.182;2022-12-29T10:36:40;18.70;21.60
12006;DHT22;6062;47.294;12.182;2022-12-29T10:42:29;17.20;22.70
12006;DHT22;6062;47.294;12.182;2022-12-29T10:45:02;16.60;23.70
12006;DHT22;6062;47.294;12.182;2022-12-29T10:47:33;16.20;23.90
12006;DHT22;6062;47.294;12.182;2022-12-29T10:50:04;15.80;24.30
12006;DHT22;6062;47.294;12.182;2022-12-29T10:52:33;15.40;24.70
12006;DHT22;6062;47.294;12.182;2022-12-29T10:55:03;15.20;25.10
12006;DHT22;6062;47.294;12.182;2022-12-29T10:57:41;14.90;25.30
12006;DHT22;6062;47.294;12.182;2022-12-29T11:00:16;14.70;25.70
12006;DHT22;6062;47.294;12.182;2022-12-29T11:05:18;14.50;26.20
12006;DHT22;6062;47.294;12.182;2022-12-29T11:08:01;14.40;26.40
12006;DHT22;6062;47.294;12.182;2022-12-29T11:15:40;14.10;26.80
12006;DHT22;6062;47.294;12.182;2022-12-29T11:18:32;14.00;26.80
12006;DHT22;6062;47.294;12.182;2022-12-29T11:21:02;13.90;27.00
12006;DHT22;6062;47.294;12.182;2022-12-29T11:23:37;13.80;27.10
12006;DHT22;6062;47.294;12.182;2022-12-29T11:26:13;13.70;27.30
12006;DHT22;6062;47.294;12.182;2022-12-29T11:28:44;13.60;27.70
12006;DHT22;6062;47.294;12.182;2022-12-29T11:31:16;13.70;27.90
12006;DHT22;6062;47.294;12.182;2022-12-29T11:33:43;13.80;28.10
12006;DHT22;6062;47.294;12.182;2022-12-29T11:36:17;14.00;27.90
12006;DHT22;6062;47.294;12.182;2022-12-29T11:38:51;14.20;27.90
12006;DHT22;6062;47.294;12.182;2022-12-29T11:41:29;14.40;27.80
12006;DHT22;6062;47.294;12.182;2022-12-29T11:44:00;14.70;27.40
12006;DHT22;6062;47.294;12.182;2022-12-29T11:46:34;14.90;27.20
12006;DHT22;6062;47.294;12.182;2022-12-29T11:49:02;15.00;27.30
12006;DHT22;6062;47.294;12.182;2022-12-29T11:51:45;15.10;28.30
12006;DHT22;6062;47.294;12.182;2022-12-29T11:54:30;15.30;27.70
12006;DHT22;6062;47.294;12.182;2022-12-29T11:57:15;15.60;27.70
12006;DHT22;6062;47.294;12.182;2022-12-29T11:59:49;16.00;27.80
12006;DHT22;6062;47.294;12.182;2022-12-29T12:02:30;16.40;27.50
12006;DHT22;6062;47.294;12.182;2022-12-29T12:07:59;17.20;26.20
12006;DHT22;6062;47.294;12.182;2022-12-29T12:10:35;17.40;26.10
12006;DHT22;6062;47.294;12.182;2022-12-29T12:13:36;17.50;25.80
12006;DHT22;6062;47.294;12.182;2022-12-29T12:19:47;17.50;25.50
12006;DHT22;6062;47.294;12.182;2022-12-29T12:22:34;17.50;25.60
12006;DHT22;6062;47.294;12.182;2022-12-29T12:27:56;17.40;25.50
12006;DHT22;6062;47.294;12.182;2022-12-29T12:30:31;17.30;25.30
12006;DHT22;6062;47.294;12.182;2022-12-29T12:33:28;17.20;25.30
12006;DHT22;6062;47.294;12.182;2022-12-29T12:39:12;17.00;25.30
12006;DHT22;6062;47.294;12.182;2022-12-29T13:01:42;14.90;26.20
12006;DHT22;6062;47.294;12.182;2022-12-29T13:13:10;12.90;27.70
12006;DHT22;6062;47.294;12.182;2022-12-29T13:24:02;11.40;29.40
12006;DHT22;6062;47.294;12.182;2022-12-29T13:30:15;10.70;28.90
12006;DHT22;6062;47.294;12.182;2022-12-29T13:38:29;10.00;29.20
12006;DHT22;6062;47.294;12.182;2022-12-29T13:41:25;9.70;29.10
12006;DHT22;6062;47.294;12.182;2022-12-29T13:43:57;9.50;29.50
12006;DHT22;6062;47.294;12.182;2022-12-29T13:46:29;9.40;30.40
12006;DHT22;6062;47.294;12.182;2022-12-29T13:49:07;9.20;31.50
12006;DHT22;6062;47.294;12.182;2022-12-29T13:51:47;9.00;32.10
12006;DHT22;6062;47.294;12.182;2022-12-29T13:54:35;8.90;32.80
12006;DHT22;6062;47.294;12.182;2022-12-29T14:00:22;8.70;33.20
12006;DHT22;6062;47.294;12.182;2022-12-29T14:03:23;8.60;33.40
12006;DHT22;6062;47.294;12.182;2022-12-29T14:06:33;8.50;33.90
12006;DHT22;6062;47.294;12.182;2022-12-29T14:09:06;8.40;34.10
12006;DHT22;6062;47.294;12.182;2022-12-29T14:11:52;8.40;34.20
12006;DHT22;6062;47.294;12.182;2022-12-29T14:14:30;8.30;34.50
12006;DHT22;6062;47.294;12.182;2022-12-29T14:17:11;8.20;35.00
12006;DHT22;6062;47.294;12.182;2022-12-29T14:19:40;8.00;35.10
12006;DHT22;6062;47.294;12.182;2022-12-29T14:22:10;7.90;35.50
12006;DHT22;6062;47.294;12.182;2022-12-29T14:24:43;7.70;35.80
12006;DHT22;6062;47.294;12.182;2022-12-29T14:34:50;7.30;37.00
12006;DHT22;6062;47.294;12.182;2022-12-29T14:37:27;7.20;36.90
12006;DHT22;6062;47.294;12.182;2022-12-29T14:42:45;7.00;37.50
12006;DHT22;6062;47.294;12.182;2022-12-29T14:47:42;6.80;37.70
12006;DHT22;6062;47.294;12.182;2022-12-29T14:50:24;6.70;37.90
12006;DHT22;6062;47.294;12.182;2022-12-29T14:53:46;6.60;38.10
12006;DHT22;6062;47.294;12.182;2022-12-29T14:56:16;6.50;38.50
12006;DHT22;6062;47.294;12.182;2022-12-29T15:04:24;6.30;39.00
12006;DHT22;6062;47.294;12.182;2022-12-29T15:06:53;6.30;39.20
12006;DHT22;6062;47.294;12.182;2022-12-29T15:09:34;6.30;39.10
12006;DHT22;6062;47.294;12.182;2022-12-29T15:12:28;6.20;39.10
12006;DHT22;6062;47.294;12.182;2022-12-29T15:15:00;6.10;39.30
12006;DHT22;6062;47.294;12.182;2022-12-29T15:17:29;6.10;39.50
12006;DHT22;6062;47.294;12.182;2022-12-29T15:19:58;6.00;39.60
12006;DHT22;6062;47.294;12.182;2022-12-29T15:22:25;5.90;39.70
12006;DHT22;6062;47.294;12.182;2022-12-29T15:24:54;5.90;39.90
12006;DHT22;6062;47.294;12.182;2022-12-29T15:27:23;5.80;40.60
12006;DHT22;6062;47.294;12.182;2022-12-29T15:29:59;5.80;40.20
12006;DHT22;6062;47.294;12.182;2022-12-29T15:32:38;5.70;40.50
12006;DHT22;6062;47.294;12.182;2022-12-29T15:35:30;5.60;40.30
12006;DHT22;6062;47.294;12.182;2022-12-29T15:37:59;5.60;40.50
12006;DHT22;6062;47.294;12.182;2022-12-29T15:40:31;5.50;40.60
12006;DHT22;6062;47.294;12.182;2022-12-29T15:45:51;5.40;40.80
12006;DHT22;6062;47.294;12.182;2022-12-29T15:48:23;5.30;40.90
12006;DHT22;6062;47.294;12.182;2022-12-29T15:50:50;5.30;41.00
12006;DHT22;6062;47.294;12.182;2022-12-29T15:53:27;5.20;41.00
12006;DHT22;6062;47.294;12.182;2022-12-29T15:55:59;5.20;41.10
12006;DHT22;6062;47.294;12.182;2022-12-29T15:58:29;5.20;41.20
12006;DHT22;6062;47.294;12.182;2022-12-29T16:00:58;5.10;41.20
12006;DHT22;6062;47.294;12.182;2022-12-29T16:03:27;5.10;41.20
12006;DHT22;6062;47.294;12.182;2022-12-29T16:06:08;5.10;41.30
12006;DHT22;6062;47.294;12.182;2022-12-29T16:08:56;5.10;41.50
12006;DHT22;6062;47.294;12.182;2022-12-29T16:11:38;5.00;41.50
12006;DHT22;6062;47.294;12.182;2022-12-29T16:14:09;5.00;41.60
12006;DHT22;6062;47.294;12.182;2022-12-29T16:16:41;5.00;41.70
12006;DHT22;6062;47.294;12.182;2022-12-29T16:19:33;5.00;41.70
12006;DHT22;6062;47.294;12.182;2022-12-29T16:22:03;4.90;41.70
12006;DHT22;6062;47.294;12.182;2022-12-29T16:24:38;4.90;41.80
12006;DHT22;6062;47.294;12.182;2022-12-29T16:27:19;4.90;41.90
12006;DHT22;6062;47.294;12.182;2022-12-29T16:29:53;4.90;41.90
12006;DHT22;6062;47.294;12.182;2022-12-29T16:32:29;4.90;42.30
12006;DHT22;6062;47.294;12.182;2022-12-29T16:35:11;4.80;42.40
12006;DHT22;6062;47.294;12.182;2022-12-29T16:38:12;4.80;42.60
12006;DHT22;6062;47.294;12.182;2022-12-29T16:41:02;4.80;42.30
12006;DHT22;6062;47.294;12.182;2022-12-29T16:43:37;4.70;42.30
12006;DHT22;6062;47.294;12.182;2022-12-29T16:46:24;4.60;42.50
12006;DHT22;6062;47.294;12.182;2022-12-29T16:48:56;4.50;42.50
12006;DHT22;6062;47.294;12.182;2022-12-29T16:51:31;4.50;42.60
12006;DHT22;6062;47.294;12.182;2022-12-29T16:54:00;4.40;42.70
12006;DHT22;6062;47.294;12.182;2022-12-29T16:56:29;4.40;42.80
12006;DHT22;6062;47.294;12.182;2022-12-29T16:59:25;4.40;42.80
12006;DHT22;6062;47.294;12.182;2022-12-29T17:01:57;4.40;42.80
12006;DHT22;6062;47.294;12.182;2022-12-29T17:04:25;4.40;42.60
12006;DHT22;6062;47.294;12.182;2022-12-29T17:06:50;4.40;42.40
12006;DHT22;6062;47.294;12.182;2022-12-29T17:09:27;4.40;42.20
12006;DHT22;6062;47.294;12.182;2022-12-29T17:11:58;4.50;42.10
12006;DHT22;6062;47.294;12.182;2022-12-29T17:14:45;4.50;42.10
12006;DHT22;6062;47.294;12.182;2022-12-29T17:19:49;4.50;42.00
12006;DHT22;6062;47.294;12.182;2022-12-29T17:22:22;4.50;42.60
12006;DHT22;6062;47.294;12.182;2022-12-29T17:24:51;4.50;41.70
12006;DHT22;6062;47.294;12.182;2022-12-29T17:27:35;4.50;41.60
12006;DHT22;6062;47.294;12.182;2022-12-29T17:30:12;4.50;41.40
12006;DHT22;6062;47.294;12.182;2022-12-29T17:32:42;4.50;41.40
12006;DHT22;6062;47.294;12.182;2022-12-29T17:35:15;4.50;41.10
12006;DHT22;6062;47.294;12.182;2022-12-29T17:37:42;4.50;41.20
12006;DHT22;6062;47.294;12.182;2022-12-29T17:40:16;4.50;41.30
12006;DHT22;6062;47.294;12.182;2022-12-29T17:42:49;4.50;41.60
12006;DHT22;6062;47.294;12.182;2022-12-29T17:45:23;4.60;41.70
12006;DHT22;6062;47.294;12.182;2022-12-29T17:47:52;4.60;41.70
12006;DHT22;6062;47.294;12.182;2022-12-29T17:50:20;4.70;41.60
12006;DHT22;6062;47.294;12.182;2022-12-29T17:52:53;4.70;41.80
12006;DHT22;6062;47.294;12.182;2022-12-29T17:55:22;4.80;42.40
12006;DHT22;6062;47.294;12.182;2022-12-29T17:57:49;4.70;42.50
12006;DHT22;6062;47.294;12.182;2022-12-29T18:00:22;4.70;42.70
12006;DHT22;6062;47.294;12.182;2022-12-29T18:02:52;4.60;43.00
12006;DHT22;6062;47.294;12.182;2022-12-29T18:05:27;4.50;43.10
12006;DHT22;6062;47.294;12.182;2022-12-29T18:07:56;4.40;43.50
12006;DHT22;6062;47.294;12.182;2022-12-29T18:10:26;4.40;43.70
12006;DHT22;6062;47.294;12.182;2022-12-29T18:12:58;4.40;44.00
12006;DHT22;6062;47.294;12.182;2022-12-29T18:15:25;4.30;43.80
12006;DHT22;6062;47.294;12.182;2022-12-29T18:18:13;4.30;43.90
12006;DHT22;6062;47.294;12.182;2022-12-29T18:20:40;4.30;43.90
12006;DHT22;6062;47.294;12.182;2022-12-29T18:23:22;4.30;43.70
12006;DHT22;6062;47.294;12.182;2022-12-29T18:28:30;4.30;43.80
12006;DHT22;6062;47.294;12.182;2022-12-29T18:30:59;4.30;44.00
12006;DHT22;6062;47.294;12.182;2022-12-29T18:33:26;4.30;44.00
12006;DHT22;6062;47.294;12.182;2022-12-29T18:35:55;4.30;44.20